sensor_id;sensor_type;location;lat;lon;timestamp;temperature;humidity
28654;DHT22;24320;56.980;24.336;2022-08-19T00:02:01;20.80;99.90
28654;DHT22;24320;56.980;24.336;2022-08-19T00:04:34;20.80;99.90
28654;DHT22;24320;56.980;24.336;2022-08-19T00:07:06;20.70;99.90
28654;DHT22;24320;56.980;24.336;2022-08-19T00:09:34;20.80;99.90
28654;DHT22;24320;56.980;24.336;2022-08-19T00:12:01;20.70;99.90
28654;DHT22;24320;56.980;24.336;2022-08-19T00:14:29;20.70;99.90
28654;DHT22;24320;56.980;24.336;2022-08-19T00:16:59;20.70;99.90
28654;DHT22;24320;56.980;24.336;2022-08-19T00:19:26;20.70;99.90
28654;DHT22;24320;56.980;24.336;2022-08-19T00:21:53;20.70;99.90
28654;DHT22;24320;56.980;24.336;2022-08-19T00:24:21;20.70;99.90
28654;DHT22;24320;56.980;24.336;2022-08-19T00:26:48;20.80;99.90
28654;DHT22;24320;56.980;24.336;2022-08-19T00:29:19;20.70;99.90
28654;DHT22;24320;56.980;24.336;2022-08-19T00:31:46;20.70;99.90
28654;DHT22;24320;56.980;24.336;2022-08-19T00:34:16;20.60;99.90
28654;DHT22;24320;56.980;24.336;2022-08-19T00:36:43;20.60;99.90
28654;DHT22;24320;56.980;24.336;2022-08-19T00:39:12;20.60;99.90
28654;DHT22;24320;56.980;24.336;2022-08-19T00:41:39;20.50;99.90
28654;DHT22;24320;56.980;24.336;2022-08-19T00:44:18;20.60;99.90
28654;DHT22;24320;56.980;24.336;2022-08-19T00:46:55;20.60;99.90
28654;DHT22;24320;56.980;24.336;2022-08-19T00:49:29;20.60;99.90
28654;DHT22;24320;56.980;24.336;2022-08-19T00:52:07;20.60;99.90
28654;DHT22;24320;56.980;24.336;2022-08-19T00:54:36;20.60;99.90
28654;DHT22;24320;56.980;24.336;2022-08-19T00:57:06;20.60;99.90
28654;DHT22;24320;56.980;24.336;2022-08-19T00:59:36;20.50;99.90
28654;DHT22;24320;56.980;24.336;2022-08-19T01:02:25;20.50;99.90
28654;DHT22;24320;56.980;24.336;2022-08-19T01:04:53;20.50;99.90
28654;DHT22;24320;56.980;24.336;2022-08-19T01:07:21;20.50;99.90
28654;DHT22;24320;56.980;24.336;2022-08-19T01:09:49;20.40;99.90
28654;DHT22;24320;56.980;24.336;2022-08-19T01:12:17;20.40;99.90
28654;DHT22;24320;56.980;24.336;2022-08-19T01:14:45;20.40;99.90
28654;DHT22;24320;56.980;24.336;2022-08-19T01:17:13;20.40;99.90
28654;DHT22;24320;56.980;24.336;2022-08-19T01:19:42;20.40;99.90
28654;DHT22;24320;56.980;24.336;2022-08-19T01:24:56;20.40;99.90
28654;DHT22;24320;56.980;24.336;2022-08-19T01:27:25;20.30;99.90
28654;DHT22;24320;56.980;24.336;2022-08-19T01:29:55;20.30;99.90
28654;DHT22;24320;56.980;24.336;2022-08-19T01:32:23;20.40;99.90
28654;DHT22;24320;56.980;24.336;2022-08-19T01:35:03;20.30;99.90
28654;DHT22;24320;56.980;24.336;2022-08-19T01:37:48;20.30;99.90
28654;DHT22;24320;56.980;24.336;2022-08-19T01:40:17;20.30;99.90
28654;DHT22;24320;56.980;24.336;2022-08-19T01:42:50;20.30;99.90
28654;DHT22;24320;56.980;24.336;2022-08-19T01:45:19;20.30;99.90
28654;DHT22;24320;56.980;24.336;2022-08-19T01:47:47;20.30;99.90
28654;DHT22;24320;56.980;24.336;2022-08-19T01:50:29;20.30;99.90
28654;DHT22;24320;56.980;24.336;2022-08-19T01:52:57;20.30;99.90
28654;DHT22;24320;56.980;24.336;2022-08-19T01:55:34;20.30;99.90
28654;DHT22;24320;56.980;24.336;2022-08-19T01:58:10;20.30;99.90
28654;DHT22;24320;56.980;24.336;2022-08-19T02:00:37;20.30;99.90
28654;DHT22;24320;56.980;24.336;2022-08-19T02:06:17;20.20;99.90
28654;DHT22;24320;56.980;24.336;2022-08-19T02:08:52;20.20;99.90
28654;DHT22;24320;56.980;24.336;2022-08-19T02:11:34;20.10;99.90
28654;DHT22;24320;56.980;24.336;2022-08-19T02:14:05;20.20;99.90
28654;DHT22;24320;56.980;24.336;2022-08-19T02:16:33;20.10;99.90
28654;DHT22;24320;56.980;24.336;2022-08-19T02:19:00;20.10;99.90
28654;DHT22;24320;56.980;24.336;2022-08-19T02:21:27;20.10;99.90
28654;DHT22;24320;56.980;24.336;2022-08-19T02:23:55;20.10;99.90
28654;DHT22;24320;56.980;24.336;2022-08-19T02:26:22;20.00;99.90
28654;DHT22;24320;56.980;24.336;2022-08-19T02:28:50;20.10;99.90
28654;DHT22;24320;56.980;24.336;2022-08-19T02:31:19;20.00;99.90
28654;DHT22;24320;56.980;24.336;2022-08-19T02:33:49;20.00;99.90
28654;DHT22;24320;56.980;24.336;2022-08-19T02:36:17;20.00;99.90
28654;DHT22;24320;56.980;24.336;2022-08-19T02:38:47;20.00;99.90
28654;DHT22;24320;56.980;24.336;2022-08-19T02:41:24;20.00;99.90
28654;DHT22;24320;56.980;24.336;2022-08-19T02:43:55;20.00;99.90
28654;DHT22;24320;56.980;24.336;2022-08-19T02:46:46;20.00;99.90
28654;DHT22;24320;56.980;24.336;2022-08-19T02:49:14;20.00;99.90
28654;DHT22;24320;56.980;24.336;2022-08-19T02:51:44;20.00;99.90
28654;DHT22;24320;56.980;24.336;2022-08-19T02:54:13;20.10;99.90
28654;DHT22;24320;56.980;24.336;2022-08-19T02:56:43;20.00;99.90
28654;DHT22;24320;56.980;24.336;2022-08-19T02:59:10;20.10;99.90
28654;DHT22;24320;56.980;24.336;2022-08-19T03:01:40;20.10;99.90
28654;DHT22;24320;56.980;24.336;2022-08-19T03:04:09;20.00;99.90
28654;DHT22;24320;56.980;24.336;2022-08-19T03:06:43;20.00;99.90
28654;DHT22;24320;56.980;24.336;2022-08-19T03:11:44;20.10;99.90
28654;DHT22;24320;56.980;24.336;2022-08-19T03:14:14;20.10;99.90
28654;DHT22;24320;56.980;24.336;2022-08-19T03:16:50;20.10;99.90
28654;DHT22;24320;56.980;24.336;2022-08-19T03:19:18;20.20;99.90
28654;DHT22;24320;56.980;24.336;2022-08-19T03:21:46;20.20;99.90
28654;DHT22;24320;56.980;24.336;2022-08-19T03:24:14;20.20;99.90
28654;DHT22;24320;56.980;24.336;2022-08-19T03:26:50;20.20;99.90
28654;DHT22;24320;56.980;24.336;2022-08-19T03:29:19;20.20;99.90
28654;DHT22;24320;56.980;24.336;2022-08-19T03:31:57;20.30;99.90
28654;DHT22;24320;56.980;24.336;2022-08-19T03:34:26;20.20;99.90
28654;DHT22;24320;56.980;24.336;2022-08-19T03:36:55;20.30;99.90
28654;DHT22;24320;56.980;24.336;2022-08-19T03:39:24;20.30;99.90
28654;DHT22;24320;56.980;24.336;2022-08-19T03:41:53;20.30;99.90
28654;DHT22;24320;56.980;24.336;2022-08-19T03:44:43;20.30;99.90
28654;DHT22;24320;56.980;24.336;2022-08-19T03:47:11;20.30;99.90
28654;DHT22;24320;56.980;24.336;2022-08-19T03:49:43;20.30;99.90
28654;DHT22;24320;56.980;24.336;2022-08-19T03:52:10;20.40;99.90
28654;DHT22;24320;56.980;24.336;2022-08-19T03:54:38;20.50;99.90
28654;DHT22;24320;56.980;24.336;2022-08-19T03:57:06;20.60;99.90
28654;DHT22;24320;56.980;24.336;2022-08-19T03:59:36;20.80;99.90
28654;DHT22;24320;56.980;24.336;2022-08-19T04:02:10;21.00;99.90
28654;DHT22;24320;56.980;24.336;2022-08-19T04:04:42;21.30;99.90
28654;DHT22;24320;56.980;24.336;2022-08-19T04:07:11;21.70;99.90
28654;DHT22;24320;56.980;24.336;2022-08-19T04:09:42;22.10;99.90
28654;DHT22;24320;56.980;24.336;2022-08-19T04:12:09;22.50;99.90
28654;DHT22;24320;56.980;24.336;2022-08-19T04:14:36;22.90;99.90
28654;DHT22;24320;56.980;24.336;2022-08-19T04:17:03;23.30;99.90
28654;DHT22;24320;56.980;24.336;2022-08-19T04:19:35;23.60;99.90
28654;DHT22;24320;56.980;24.336;2022-08-19T04:22:02;23.90;99.90
28654;DHT22;24320;56.980;24.336;2022-08-19T04:24:29;24.20;99.90
28654;DHT22;24320;56.980;24.336;2022-08-19T04:26:59;24.50;99.90
28654;DHT22;24320;56.980;24.336;2022-08-19T04:29:26;24.80;99.90
28654;DHT22;24320;56.980;24.336;2022-08-19T04:32:03;25.00;99.90
28654;DHT22;24320;56.980;24.336;2022-08-19T04:34:36;25.10;99.90
28654;DHT22;24320;56.980;24.336;2022-08-19T04:37:24;25.30;99.90
28654;DHT22;24320;56.980;24.336;2022-08-19T04:39:51;25.40;99.90
28654;DHT22;24320;56.980;24.336;2022-08-19T04:42:37;25.60;99.90
28654;DHT22;24320;56.980;24.336;2022-08-19T04:45:12;25.80;99.90
28654;DHT22;24320;56.980;24.336;2022-08-19T04:47:41;25.90;99.90
28654;DHT22;24320;56.980;24.336;2022-08-19T04:50:14;26.10;99.90
28654;DHT22;24320;56.980;24.336;2022-08-19T04:52:41;26.30;99.90
28654;DHT22;24320;56.980;24.336;2022-08-19T04:55:10;26.50;99.90
28654;DHT22;24320;56.980;24.336;2022-08-19T04:57:38;26.70;99.90
28654;DHT22;24320;56.980;24.336;2022-08-19T05:00:08;26.70;99.90
28654;DHT22;24320;56.980;24.336;2022-08-19T05:02:37;26.80;99.90
28654;DHT22;24320;56.980;24.336;2022-08-19T05:05:05;26.90;99.90
28654;DHT22;24320;56.980;24.336;2022-08-19T05:07:33;27.00;99.90
28654;DHT22;24320;56.980;24.336;2022-08-19T05:10:00;27.30;99.90
28654;DHT22;24320;56.980;24.336;2022-08-19T05:12:28;27.50;99.90
28654;DHT22;24320;56.980;24.336;2022-08-19T05:14:56;27.80;99.90
28654;DHT22;24320;56.980;24.336;2022-08-19T05:17:25;27.90;99.90
28654;DHT22;24320;56.980;24.336;2022-08-19T05:19:56;28.10;99.90
28654;DHT22;24320;56.980;24.336;2022-08-19T05:22:44;28.30;99.90
28654;DHT22;24320;56.980;24.336;2022-08-19T05:25:14;28.00;99.90
28654;DHT22;24320;56.980;24.336;2022-08-19T05:27:41;27.70;99.90
28654;DHT22;24320;56.980;24.336;2022-08-19T05:30:11;27.60;99.90
28654;DHT22;24320;56.980;24.336;2022-08-19T05:32:39;27.80;99.90
28654;DHT22;24320;56.980;24.336;2022-08-19T05:35:06;28.10;99.90
28654;DHT22;24320;56.980;24.336;2022-08-19T05:37:33;28.30;99.90
28654;DHT22;24320;56.980;24.336;2022-08-19T05:40:01;28.60;99.90
28654;DHT22;24320;56.980;24.336;2022-08-19T05:42:28;28.70;99.90
28654;DHT22;24320;56.980;24.336;2022-08-19T05:44:55;28.60;99.90
28654;DHT22;24320;56.980;24.336;2022-08-19T05:47:23;28.50;99.90
28654;DHT22;24320;56.980;24.336;2022-08-19T05:49:50;28.70;99.90
28654;DHT22;24320;56.980;24.336;2022-08-19T05:52:18;28.90;99.90
28654;DHT22;24320;56.980;24.336;2022-08-19T05:54:52;29.00;99.90
28654;DHT22;24320;56.980;24.336;2022-08-19T05:59:50;29.70;99.90
28654;DHT22;24320;56.980;24.336;2022-08-19T06:02:28;30.00;99.90
28654;DHT22;24320;56.980;24.336;2022-08-19T06:04:57;30.40;99.90
28654;DHT22;24320;56.980;24.336;2022-08-19T06:07:24;30.40;99.90
28654;DHT22;24320;56.980;24.336;2022-08-19T06:09:51;30.40;99.90
28654;DHT22;24320;56.980;24.336;2022-08-19T06:12:31;30.50;99.90
28654;DHT22;24320;56.980;24.336;2022-08-19T06:15:11;30.70;99.50
28654;DHT22;24320;56.980;24.336;2022-08-19T06:17:38;30.60;99.50
28654;DHT22;24320;56.980;24.336;2022-08-19T06:20:08;30.50;99.90
28654;DHT22;24320;56.980;24.336;2022-08-19T06:22:49;30.70;99.90
28654;DHT22;24320;56.980;24.336;2022-08-19T06:25:32;30.90;99.90
28654;DHT22;24320;56.980;24.336;2022-08-19T06:27:59;31.00;99.40
28654;DHT22;24320;56.980;24.336;2022-08-19T06:30:41;31.10;99.20
28654;DHT22;24320;56.980;24.336;2022-08-19T06:33:08;31.20;98.90
28654;DHT22;24320;56.980;24.336;2022-08-19T06:35:39;31.20;99.10
28654;DHT22;24320;56.980;24.336;2022-08-19T06:38:07;31.20;99.30
28654;DHT22;24320;56.980;24.336;2022-08-19T06:40:36;31.30;99.00
28654;DHT22;24320;56.980;24.336;2022-08-19T06:43:04;31.40;98.30
28654;DHT22;24320;56.980;24.336;2022-08-19T06:45:36;31.50;97.20
28654;DHT22;24320;56.980;24.336;2022-08-19T06:48:05;31.50;96.20
28654;DHT22;24320;56.980;24.336;2022-08-19T06:50:33;31.40;96.20
28654;DHT22;24320;56.980;24.336;2022-08-19T06:53:04;30.90;96.80
28654;DHT22;24320;56.980;24.336;2022-08-19T06:55:32;30.40;97.60
28654;DHT22;24320;56.980;24.336;2022-08-19T06:58:02;30.00;98.00
28654;DHT22;24320;56.980;24.336;2022-08-19T07:00:30;29.40;98.20
28654;DHT22;24320;56.980;24.336;2022-08-19T07:03:02;28.80;99.30
28654;DHT22;24320;56.980;24.336;2022-08-19T07:05:40;28.10;99.90
28654;DHT22;24320;56.980;24.336;2022-08-19T07:08:11;27.50;99.90
28654;DHT22;24320;56.980;24.336;2022-08-19T07:10:42;27.00;99.90
28654;DHT22;24320;56.980;24.336;2022-08-19T07:13:09;26.70;99.90
28654;DHT22;24320;56.980;24.336;2022-08-19T07:15:38;26.40;99.90
28654;DHT22;24320;56.980;24.336;2022-08-19T07:18:05;26.20;99.90
28654;DHT22;24320;56.980;24.336;2022-08-19T07:20:32;26.20;99.90
28654;DHT22;24320;56.980;24.336;2022-08-19T07:23:00;26.20;99.90
28654;DHT22;24320;56.980;24.336;2022-08-19T07:25:32;26.30;99.90
28654;DHT22;24320;56.980;24.336;2022-08-19T07:27:59;26.30;99.90
28654;DHT22;24320;56.980;24.336;2022-08-19T07:30:27;26.30;99.90
28654;DHT22;24320;56.980;24.336;2022-08-19T07:32:54;26.30;99.90
28654;DHT22;24320;56.980;24.336;2022-08-19T07:35:22;26.40;99.90
28654;DHT22;24320;56.980;24.336;2022-08-19T07:37:50;26.50;99.90
28654;DHT22;24320;56.980;24.336;2022-08-19T07:40:17;26.50;99.90
28654;DHT22;24320;56.980;24.336;2022-08-19T07:42:44;26.60;99.90
28654;DHT22;24320;56.980;24.336;2022-08-19T07:45:11;26.70;99.90
28654;DHT22;24320;56.980;24.336;2022-08-19T07:47:39;26.90;99.90
28654;DHT22;24320;56.980;24.336;2022-08-19T07:50:18;27.30;99.90
28654;DHT22;24320;56.980;24.336;2022-08-19T07:52:47;27.60;99.90
28654;DHT22;24320;56.980;24.336;2022-08-19T07:55:19;27.90;99.90
28654;DHT22;24320;56.980;24.336;2022-08-19T07:58:07;28.10;99.90
28654;DHT22;24320;56.980;24.336;2022-08-19T08:00:34;28.30;99.90
28654;DHT22;24320;56.980;24.336;2022-08-19T08:03:02;28.80;99.90
28654;DHT22;24320;56.980;24.336;2022-08-19T08:05:29;29.30;99.90
28654;DHT22;24320;56.980;24.336;2022-08-19T08:08:15;29.80;99.90
28654;DHT22;24320;56.980;24.336;2022-08-19T08:11:00;30.00;99.90
28654;DHT22;24320;56.980;24.336;2022-08-19T08:13:33;29.90;99.90
28654;DHT22;24320;56.980;24.336;2022-08-19T08:16:02;29.90;99.90
28654;DHT22;24320;56.980;24.336;2022-08-19T08:18:30;29.90;99.90
28654;DHT22;24320;56.980;24.336;2022-08-19T08:20:59;29.90;99.90
28654;DHT22;24320;56.980;24.336;2022-08-19T08:23:26;29.80;99.90
28654;DHT22;24320;56.980;24.336;2022-08-19T08:25:55;29.60;99.90
28654;DHT22;24320;56.980;24.336;2022-08-19T08:28:24;29.60;99.90
28654;DHT22;24320;56.980;24.336;2022-08-19T08:30:56;29.70;99.90
28654;DHT22;24320;56.980;24.336;2022-08-19T08:33:26;30.00;99.90
28654;DHT22;24320;56.980;24.336;2022-08-19T08:36:04;30.20;99.90
28654;DHT22;24320;56.980;24.336;2022-08-19T08:38:32;30.30;99.90
28654;DHT22;24320;56.980;24.336;2022-08-19T08:43:55;30.40;99.90
28654;DHT22;24320;56.980;24.336;2022-08-19T08:49:06;30.50;99.90
28654;DHT22;24320;56.980;24.336;2022-08-19T08:51:40;30.60;98.70
28654;DHT22;24320;56.980;24.336;2022-08-19T08:54:14;30.60;99.40
28654;DHT22;24320;56.980;24.336;2022-08-19T08:56:45;30.70;98.40
28654;DHT22;24320;56.980;24.336;2022-08-19T08:59:29;30.70;97.20
28654;DHT22;24320;56.980;24.336;2022-08-19T09:01:59;30.70;98.10
28654;DHT22;24320;56.980;24.336;2022-08-19T09:04:27;30.80;98.20
28654;DHT22;24320;56.980;24.336;2022-08-19T09:10:27;30.90;98.10
28654;DHT22;24320;56.980;24.336;2022-08-19T09:13:30;31.00;94.80
28654;DHT22;24320;56.980;24.336;2022-08-19T09:16:16;31.00;94.30
28654;DHT22;24320;56.980;24.336;2022-08-19T09:18:56;30.90;95.50
28654;DHT22;24320;56.980;24.336;2022-08-19T09:21:25;30.80;94.80
28654;DHT22;24320;56.980;24.336;2022-08-19T09:23:59;30.80;96.00
28654;DHT22;24320;56.980;24.336;2022-08-19T09:26:29;30.80;95.40
28654;DHT22;24320;56.980;24.336;2022-08-19T09:29:18;30.80;94.80
28654;DHT22;24320;56.980;24.336;2022-08-19T09:31:48;30.70;93.40
28654;DHT22;24320;56.980;24.336;2022-08-19T09:34:16;30.50;93.30
28654;DHT22;24320;56.980;24.336;2022-08-19T09:36:48;30.40;95.50
28654;DHT22;24320;56.980;24.336;2022-08-19T09:39:20;30.40;95.50
28654;DHT22;24320;56.980;24.336;2022-08-19T09:41:47;30.50;93.80
28654;DHT22;24320;56.980;24.336;2022-08-19T09:44:17;30.60;94.10
28654;DHT22;24320;56.980;24.336;2022-08-19T09:46:45;30.60;94.60
28654;DHT22;24320;56.980;24.336;2022-08-19T09:49:15;30.70;95.90
28654;DHT22;24320;56.980;24.336;2022-08-19T09:51:44;30.80;93.40
28654;DHT22;24320;56.980;24.336;2022-08-19T09:54:17;30.70;91.90
28654;DHT22;24320;56.980;24.336;2022-08-19T09:56:53;30.70;91.90
28654;DHT22;24320;56.980;24.336;2022-08-19T09:59:21;30.70;92.00
28654;DHT22;24320;56.980;24.336;2022-08-19T10:01:48;30.60;91.40
28654;DHT22;24320;56.980;24.336;2022-08-19T10:04:15;30.50;91.80
28654;DHT22;24320;56.980;24.336;2022-08-19T10:06:48;30.40;91.40
28654;DHT22;24320;56.980;24.336;2022-08-19T10:09:20;30.30;91.20
28654;DHT22;24320;56.980;24.336;2022-08-19T10:12:03;30.30;92.20
28654;DHT22;24320;56.980;24.336;2022-08-19T10:14:32;30.40;91.60
28654;DHT22;24320;56.980;24.336;2022-08-19T10:17:00;30.50;91.90
28654;DHT22;24320;56.980;24.336;2022-08-19T10:19:44;30.50;90.30
28654;DHT22;24320;56.980;24.336;2022-08-19T10:22:22;30.40;91.20
28654;DHT22;24320;56.980;24.336;2022-08-19T10:24:51;30.40;92.60
28654;DHT22;24320;56.980;24.336;2022-08-19T10:27:19;30.40;91.40
28654;DHT22;24320;56.980;24.336;2022-08-19T10:29:45;30.50;91.90
28654;DHT22;24320;56.980;24.336;2022-08-19T10:32:14;30.60;91.00
28654;DHT22;24320;56.980;24.336;2022-08-19T10:34:42;30.50;91.10
28654;DHT22;24320;56.980;24.336;2022-08-19T10:37:15;30.50;90.70
28654;DHT22;24320;56.980;24.336;2022-08-19T10:39:54;30.40;90.80
28654;DHT22;24320;56.980;24.336;2022-08-19T10:42:21;30.30;87.30
28654;DHT22;24320;56.980;24.336;2022-08-19T10:44:48;30.20;89.40
28654;DHT22;24320;56.980;24.336;2022-08-19T10:47:18;30.20;89.60
28654;DHT22;24320;56.980;24.336;2022-08-19T10:49:57;30.20;90.00
28654;DHT22;24320;56.980;24.336;2022-08-19T10:52:45;30.30;91.30
28654;DHT22;24320;56.980;24.336;2022-08-19T10:55:18;30.50;90.70
28654;DHT22;24320;56.980;24.336;2022-08-19T10:58:36;30.60;88.50
28654;DHT22;24320;56.980;24.336;2022-08-19T11:01:33;30.60;89.20
28654;DHT22;24320;56.980;24.336;2022-08-19T11:04:03;30.60;87.00
28654;DHT22;24320;56.980;24.336;2022-08-19T11:06:34;30.60;86.70
28654;DHT22;24320;56.980;24.336;2022-08-19T11:09:02;30.60;88.60
28654;DHT22;24320;56.980;24.336;2022-08-19T11:11:29;30.60;87.50
28654;DHT22;24320;56.980;24.336;2022-08-19T11:13:56;30.50;87.60
28654;DHT22;24320;56.980;24.336;2022-08-19T11:16:26;30.40;85.20
28654;DHT22;24320;56.980;24.336;2022-08-19T11:18:57;30.30;85.40
28654;DHT22;24320;56.980;24.336;2022-08-19T11:21:31;30.30;86.60
28654;DHT22;24320;56.980;24.336;2022-08-19T11:24:05;30.30;86.20
28654;DHT22;24320;56.980;24.336;2022-08-19T11:26:33;30.40;89.10
28654;DHT22;24320;56.980;24.336;2022-08-19T11:29:01;30.50;84.70
28654;DHT22;24320;56.980;24.336;2022-08-19T11:31:31;30.40;85.90
28654;DHT22;24320;56.980;24.336;2022-08-19T11:34:00;30.40;84.70
28654;DHT22;24320;56.980;24.336;2022-08-19T11:36:28;30.40;82.90
28654;DHT22;24320;56.980;24.336;2022-08-19T11:38:55;30.40;83.00
28654;DHT22;24320;56.980;24.336;2022-08-19T11:41:23;30.30;82.40
28654;DHT22;24320;56.980;24.336;2022-08-19T11:43:51;30.30;82.40
28654;DHT22;24320;56.980;24.336;2022-08-19T11:46:23;30.30;83.70
28654;DHT22;24320;56.980;24.336;2022-08-19T11:48:52;30.40;84.00
28654;DHT22;24320;56.980;24.336;2022-08-19T11:51:21;30.50;85.30
28654;DHT22;24320;56.980;24.336;2022-08-19T11:53:55;30.60;86.60
28654;DHT22;24320;56.980;24.336;2022-08-19T11:56:23;30.60;82.10
28654;DHT22;24320;56.980;24.336;2022-08-19T11:58:51;30.60;80.30
28654;DHT22;24320;56.980;24.336;2022-08-19T12:01:21;30.60;81.50
28654;DHT22;24320;56.980;24.336;2022-08-19T12:03:50;30.60;79.80
28654;DHT22;24320;56.980;24.336;2022-08-19T12:06:20;30.60;77.40
28654;DHT22;24320;56.980;24.336;2022-08-19T12:08:49;30.60;80.10
28654;DHT22;24320;56.980;24.336;2022-08-19T12:11:17;30.60;77.60
28654;DHT22;24320;56.980;24.336;2022-08-19T12:13:58;30.60;76.50
28654;DHT22;24320;56.980;24.336;2022-08-19T12:16:28;30.50;75.30
28654;DHT22;24320;56.980;24.336;2022-08-19T12:18:56;30.50;75.60
28654;DHT22;24320;56.980;24.336;2022-08-19T12:21:26;30.50;75.10
28654;DHT22;24320;56.980;24.336;2022-08-19T12:23:57;30.50;76.30
28654;DHT22;24320;56.980;24.336;2022-08-19T12:26:26;30.50;75.00
28654;DHT22;24320;56.980;24.336;2022-08-19T12:28:54;30.40;75.90
28654;DHT22;24320;56.980;24.336;2022-08-19T12:31:21;30.40;75.60
28654;DHT22;24320;56.980;24.336;2022-08-19T12:33:48;30.30;73.40
28654;DHT22;24320;56.980;24.336;2022-08-19T12:36:16;30.20;77.60
28654;DHT22;24320;56.980;24.336;2022-08-19T12:38:44;30.20;75.60
28654;DHT22;24320;56.980;24.336;2022-08-19T12:41:17;30.20;74.20
28654;DHT22;24320;56.980;24.336;2022-08-19T12:43:45;30.30;73.40
28654;DHT22;24320;56.980;24.336;2022-08-19T12:46:12;30.30;76.20
28654;DHT22;24320;56.980;24.336;2022-08-19T12:48:42;30.30;75.40
28654;DHT22;24320;56.980;24.336;2022-08-19T12:51:14;30.30;73.40
28654;DHT22;24320;56.980;24.336;2022-08-19T12:53:42;30.40;76.30
28654;DHT22;24320;56.980;24.336;2022-08-19T12:56:11;30.50;75.70
28654;DHT22;24320;56.980;24.336;2022-08-19T12:58:38;30.60;76.10
28654;DHT22;24320;56.980;24.336;2022-08-19T13:01:10;30.70;74.50
28654;DHT22;24320;56.980;24.336;2022-08-19T13:06:17;30.80;72.70
28654;DHT22;24320;56.980;24.336;2022-08-19T13:08:54;30.90;73.20
28654;DHT22;24320;56.980;24.336;2022-08-19T13:11:25;30.80;74.00
28654;DHT22;24320;56.980;24.336;2022-08-19T13:13:52;30.90;73.00
28654;DHT22;24320;56.980;24.336;2022-08-19T13:16:21;30.90;74.30
28654;DHT22;24320;56.980;24.336;2022-08-19T13:18:48;30.90;73.20
28654;DHT22;24320;56.980;24.336;2022-08-19T13:21:20;30.80;72.40
28654;DHT22;24320;56.980;24.336;2022-08-19T13:23:49;30.80;71.50
28654;DHT22;24320;56.980;24.336;2022-08-19T13:26:16;30.70;72.90
28654;DHT22;24320;56.980;24.336;2022-08-19T13:28:44;30.70;72.70
28654;DHT22;24320;56.980;24.336;2022-08-19T13:31:33;30.60;71.20
28654;DHT22;24320;56.980;24.336;2022-08-19T13:34:32;30.50;72.30
28654;DHT22;24320;56.980;24.336;2022-08-19T13:37:01;30.50;73.30
28654;DHT22;24320;56.980;24.336;2022-08-19T13:39:32;30.40;73.20
28654;DHT22;24320;56.980;24.336;2022-08-19T13:42:01;30.30;71.80
28654;DHT22;24320;56.980;24.336;2022-08-19T13:44:28;30.20;71.30
28654;DHT22;24320;56.980;24.336;2022-08-19T13:47:05;30.20;71.40
28654;DHT22;24320;56.980;24.336;2022-08-19T13:49:35;30.20;71.00
28654;DHT22;24320;56.980;24.336;2022-08-19T13:52:04;30.20;72.50
28654;DHT22;24320;56.980;24.336;2022-08-19T13:54:32;30.10;74.80
28654;DHT22;24320;56.980;24.336;2022-08-19T13:56:59;30.10;75.20
28654;DHT22;24320;56.980;24.336;2022-08-19T13:59:26;30.10;75.10
28654;DHT22;24320;56.980;24.336;2022-08-19T14:01:56;30.10;73.20
28654;DHT22;24320;56.980;24.336;2022-08-19T14:04:24;30.10;73.60
28654;DHT22;24320;56.980;24.336;2022-08-19T14:06:51;30.10;75.30
28654;DHT22;24320;56.980;24.336;2022-08-19T14:09:18;30.10;76.20
28654;DHT22;24320;56.980;24.336;2022-08-19T14:11:45;30.10;76.00
28654;DHT22;24320;56.980;24.336;2022-08-19T14:14:13;30.10;73.50
28654;DHT22;24320;56.980;24.336;2022-08-19T14:16:42;30.10;75.30
28654;DHT22;24320;56.980;24.336;2022-08-19T14:19:09;30.00;75.80
28654;DHT22;24320;56.980;24.336;2022-08-19T14:24:16;30.00;75.40
28654;DHT22;24320;56.980;24.336;2022-08-19T14:26:43;30.00;74.60
28654;DHT22;24320;56.980;24.336;2022-08-19T14:29:09;29.90;72.70
28654;DHT22;24320;56.980;24.336;2022-08-19T14:31:36;29.90;74.60
28654;DHT22;24320;56.980;24.336;2022-08-19T14:34:05;29.90;74.30
28654;DHT22;24320;56.980;24.336;2022-08-19T14:36:32;30.00;75.90
28654;DHT22;24320;56.980;24.336;2022-08-19T14:39:05;29.90;73.50
28654;DHT22;24320;56.980;24.336;2022-08-19T14:41:32;29.90;74.40
28654;DHT22;24320;56.980;24.336;2022-08-19T14:44:00;29.90;73.90
28654;DHT22;24320;56.980;24.336;2022-08-19T14:46:28;29.80;73.40
28654;DHT22;24320;56.980;24.336;2022-08-19T14:48:55;29.80;75.30
28654;DHT22;24320;56.980;24.336;2022-08-19T14:51:25;29.80;75.80
28654;DHT22;24320;56.980;24.336;2022-08-19T14:53:56;29.90;75.80
28654;DHT22;24320;56.980;24.336;2022-08-19T14:56:26;30.00;76.40
28654;DHT22;24320;56.980;24.336;2022-08-19T14:58:53;30.00;75.90
28654;DHT22;24320;56.980;24.336;2022-08-19T15:01:22;30.00;76.30
28654;DHT22;24320;56.980;24.336;2022-08-19T15:03:50;30.00;74.60
28654;DHT22;24320;56.980;24.336;2022-08-19T15:06:20;30.00;73.80
28654;DHT22;24320;56.980;24.336;2022-08-19T15:08:49;29.90;73.60
28654;DHT22;24320;56.980;24.336;2022-08-19T15:11:20;29.90;73.90
28654;DHT22;24320;56.980;24.336;2022-08-19T15:13:47;29.80;75.10
28654;DHT22;24320;56.980;24.336;2022-08-19T15:16:16;29.70;75.20
28654;DHT22;24320;56.980;24.336;2022-08-19T15:18:45;29.70;74.40
28654;DHT22;24320;56.980;24.336;2022-08-19T15:21:14;29.60;74.30
28654;DHT22;24320;56.980;24.336;2022-08-19T15:23:54;29.50;73.00
28654;DHT22;24320;56.980;24.336;2022-08-19T15:26:22;29.50;74.00
28654;DHT22;24320;56.980;24.336;2022-08-19T15:28:49;29.40;75.20
28654;DHT22;24320;56.980;24.336;2022-08-19T15:31:18;29.30;74.80
28654;DHT22;24320;56.980;24.336;2022-08-19T15:33:56;29.20;75.10
28654;DHT22;24320;56.980;24.336;2022-08-19T15:36:24;29.10;76.60
28654;DHT22;24320;56.980;24.336;2022-08-19T15:38:51;29.10;75.50
28654;DHT22;24320;56.980;24.336;2022-08-19T15:41:21;29.10;74.90
28654;DHT22;24320;56.980;24.336;2022-08-19T15:46:28;29.10;75.90
28654;DHT22;24320;56.980;24.336;2022-08-19T15:48:56;29.10;75.80
28654;DHT22;24320;56.980;24.336;2022-08-19T15:51:27;29.00;75.80
28654;DHT22;24320;56.980;24.336;2022-08-19T15:53:57;29.00;75.40
28654;DHT22;24320;56.980;24.336;2022-08-19T15:56:24;28.90;76.70
28654;DHT22;24320;56.980;24.336;2022-08-19T15:58:53;28.90;76.80
28654;DHT22;24320;56.980;24.336;2022-08-19T16:01:38;28.80;76.90
28654;DHT22;24320;56.980;24.336;2022-08-19T16:04:24;28.80;78.00
28654;DHT22;24320;56.980;24.336;2022-08-19T16:07:09;28.70;77.40